createdAt,value
2017-11-10T00:00:57.777Z,1017.12
2017-11-10T00:02:07.090Z,1017.09
2017-11-10T00:03:16.403Z,1017.02
2017-11-10T00:04:25.372Z,1016.99
2017-11-10T00:05:34.692Z,1016.96
2017-11-10T00:06:43.993Z,1016.92
2017-11-10T00:07:53.952Z,1016.87
2017-11-10T00:09:03.591Z,1016.87
2017-11-10T00:10:13.240Z,1016.87
2017-11-10T00:11:22.879Z,1016.86
2017-11-10T00:12:32.514Z,1016.92
2017-11-10T00:13:42.477Z,1016.9
2017-11-10T00:14:51.798Z,1016.95
2017-11-10T00:16:01.471Z,1016.92
2017-11-10T00:17:11.102Z,1016.89
2017-11-10T00:18:19.748Z,1016.83
2017-11-10T00:19:29.394Z,1016.79
2017-11-10T00:20:39.039Z,1016.74
2017-11-10T00:21:48.684Z,1016.78
2017-11-10T00:22:57.334Z,1016.81
2017-11-10T00:24:06.628Z,1016.8
2017-11-10T00:25:15.287Z,1016.8
2017-11-10T00:26:25.250Z,1016.76
2017-11-10T00:27:33.897Z,1016.7
2017-11-10T00:28:43.568Z,1016.69
2017-11-10T00:29:52.553Z,1016.67
2017-11-10T00:31:01.871Z,1016.66
2017-11-10T00:32:11.527Z,1016.59
2017-11-10T00:33:20.808Z,1016.6
2017-11-10T00:34:29.787Z,1016.58
2017-11-10T00:35:38.501Z,1016.52
2017-11-10T00:36:47.143Z,1016.55
2017-11-10T00:37:56.112Z,1016.57
2017-11-10T00:39:05.791Z,1016.59
2017-11-10T00:40:15.113Z,1016.65
2017-11-10T00:41:25.090Z,1016.62
2017-11-10T00:42:34.738Z,1016.56
2017-11-10T00:43:44.381Z,1016.52
2017-11-10T00:44:54.032Z,1016.51
2017-11-10T00:46:03.007Z,1016.43
2017-11-10T00:47:12.639Z,1016.41
2017-11-10T00:48:21.951Z,1016.4
2017-11-10T00:49:31.259Z,1016.47
2017-11-10T00:50:40.235Z,1016.57
2017-11-10T00:51:49.210Z,1016.61
2017-11-10T00:52:58.202Z,1016.66
2017-11-10T00:54:07.517Z,1016.66
2017-11-10T00:55:17.160Z,1016.72
2017-11-10T00:56:26.813Z,1016.79
2017-11-10T00:57:36.476Z,1016.85
2017-11-10T00:58:45.189Z,1016.91
2017-11-10T00:59:54.822Z,1016.93
2017-11-10T01:01:04.161Z,1016.97
2017-11-10T01:02:13.159Z,1016.91
2017-11-10T01:03:22.793Z,1016.95
2017-11-10T01:04:32.095Z,1016.93
2017-11-10T01:05:41.735Z,1016.95
2017-11-10T01:06:50.716Z,1016.93
2017-11-10T01:08:00.013Z,1016.91
2017-11-10T01:09:09.645Z,1016.91
2017-11-10T01:10:18.311Z,1016.9
2017-11-10T01:11:28.293Z,1016.88
2017-11-10T01:12:37.270Z,1016.87
2017-11-10T01:13:46.790Z,1016.83
2017-11-10T01:14:55.774Z,1016.76
2017-11-10T01:16:05.420Z,1016.65
2017-11-10T01:17:14.063Z,1016.6
2017-11-10T01:18:23.373Z,1016.53
2017-11-10T01:19:32.717Z,1016.41
2017-11-10T01:20:41.356Z,1016.29
2017-11-10T01:21:50.329Z,1016.24
2017-11-10T01:22:59.637Z,1016.18
2017-11-10T01:24:09.260Z,1016.24
2017-11-10T01:25:17.926Z,1016.2
2017-11-10T01:26:27.579Z,1016.2
2017-11-10T01:27:36.554Z,1016.18
2017-11-10T01:28:46.185Z,1016.14
2017-11-10T01:29:55.823Z,1016.11
2017-11-10T01:31:04.816Z,1016.02
2017-11-10T01:32:14.108Z,1016
2017-11-10T01:33:23.078Z,1016.02
2017-11-10T01:34:32.709Z,1016.02
2017-11-10T01:35:42.339Z,1016.01
2017-11-10T01:36:52.663Z,1016.06
2017-11-10T01:38:02.627Z,1016.07
2017-11-10T01:39:11.936Z,1016.14
2017-11-10T01:40:20.942Z,1016.16
2017-11-10T01:41:30.248Z,1016.2
2017-11-10T01:42:39.248Z,1016.19
2017-11-10T01:43:48.549Z,1016.2
2017-11-10T01:44:58.173Z,1016.14
2017-11-10T01:46:07.481Z,1016.1
2017-11-10T01:47:16.784Z,1016.06
2017-11-10T01:48:26.420Z,1016.11
2017-11-10T01:49:35.731Z,1016.18
2017-11-10T01:50:44.719Z,1016.18
2017-11-10T01:51:53.697Z,1016.22
2017-11-10T01:53:03.365Z,1016.22
2017-11-10T01:54:12.651Z,1016.11
2017-11-10T01:55:22.008Z,1016.02
2017-11-10T01:56:31.318Z,1016.01
2017-11-10T01:57:41.415Z,1015.96
2017-11-10T01:58:50.719Z,1015.96
2017-11-10T02:00:00.376Z,1015.92
2017-11-10T02:01:09.439Z,1015.91
2017-11-10T02:02:19.082Z,1015.9
2017-11-10T02:03:28.408Z,1015.9
2017-11-10T02:04:37.397Z,1015.81
2017-11-10T02:05:46.045Z,1015.83
2017-11-10T02:06:55.351Z,1015.79
2017-11-10T02:08:05.310Z,1015.82
2017-11-10T02:09:14.625Z,1015.81
2017-11-10T02:10:24.587Z,1015.79
2017-11-10T02:11:34.214Z,1015.81
2017-11-10T02:12:43.902Z,1015.77
2017-11-10T02:13:53.578Z,1015.75
2017-11-10T02:15:02.231Z,1015.73
2017-11-10T02:16:11.550Z,1015.72
2017-11-10T02:17:20.526Z,1015.69
2017-11-10T02:18:30.476Z,1015.68
2017-11-10T02:19:39.777Z,1015.66
2017-11-10T02:20:48.418Z,1015.61
2017-11-10T02:21:57.725Z,1015.63
2017-11-10T02:23:07.035Z,1015.59
2017-11-10T02:24:16.666Z,1015.56
2017-11-10T02:25:25.974Z,1015.55
2017-11-10T02:26:34.953Z,1015.49
2017-11-10T02:27:44.249Z,1015.47
2017-11-10T02:28:53.562Z,1015.45
2017-11-10T02:30:02.866Z,1015.43
2017-11-10T02:31:12.523Z,1015.43
2017-11-10T02:32:21.496Z,1015.43
2017-11-10T02:33:30.477Z,1015.39
2017-11-10T02:34:39.807Z,1015.35
2017-11-10T02:35:48.787Z,1015.35
2017-11-10T02:36:57.768Z,1015.35
2017-11-10T02:38:08.094Z,1015.33
2017-11-10T02:39:17.453Z,1015.32
2017-11-10T02:40:26.760Z,1015.3
2017-11-10T02:41:36.063Z,1015.3
2017-11-10T02:42:45.729Z,1015.29
2017-11-10T02:43:55.350Z,1015.31
2017-11-10T02:45:04.008Z,1015.28
2017-11-10T02:46:13.328Z,1015.3
2017-11-10T02:47:22.650Z,1015.22
2017-11-10T02:48:31.958Z,1015.26
2017-11-10T02:49:41.260Z,1015.24
2017-11-10T02:50:50.246Z,1015.23
2017-11-10T02:51:59.566Z,1015.2
2017-11-10T02:53:09.209Z,1015.11
2017-11-10T02:54:18.209Z,1015.12
2017-11-10T02:55:27.191Z,1015.07
2017-11-10T02:56:36.519Z,1015.01
2017-11-10T02:57:46.504Z,1015
2017-11-10T02:58:55.836Z,1014.98
2017-11-10T03:00:05.536Z,1015.04
2017-11-10T03:01:14.508Z,1015.07
2017-11-10T03:02:23.833Z,1015
2017-11-10T03:03:33.135Z,1015.04
2017-11-10T03:04:41.775Z,1014.98
2017-11-10T03:05:51.760Z,1014.95
2017-11-10T03:07:01.731Z,1014.96
2017-11-10T03:08:11.363Z,1014.95
2017-11-10T03:09:20.334Z,1014.92
2017-11-10T03:10:29.637Z,1014.94
2017-11-10T03:11:38.665Z,1014.88
2017-11-10T03:12:47.986Z,1014.83
2017-11-10T03:13:57.301Z,1014.83
2017-11-10T03:15:06.959Z,1014.8
2017-11-10T03:16:15.922Z,1014.77
2017-11-10T03:17:24.562Z,1014.73
2017-11-10T03:18:33.871Z,1014.71
2017-11-10T03:19:43.499Z,1014.68
2017-11-10T03:20:52.812Z,1014.69
2017-11-10T03:22:02.799Z,1014.69
2017-11-10T03:23:11.774Z,1014.68
2017-11-10T03:24:21.421Z,1014.72
2017-11-10T03:25:30.069Z,1014.63
2017-11-10T03:26:39.361Z,1014.63
2017-11-10T03:27:48.676Z,1014.65
2017-11-10T03:28:57.669Z,1014.58
2017-11-10T03:30:06.971Z,1014.56
2017-11-10T03:31:16.944Z,1014.62
2017-11-10T03:32:26.260Z,1014.69
2017-11-10T03:33:36.554Z,1014.64
2017-11-10T03:34:45.857Z,1014.53
2017-11-10T03:35:55.489Z,1014.52
2017-11-10T03:37:05.839Z,1014.43
2017-11-10T03:38:15.808Z,1014.43
2017-11-10T03:39:24.772Z,1014.44
2017-11-10T03:40:34.078Z,1014.38
2017-11-10T03:41:43.380Z,1014.34
2017-11-10T03:42:52.683Z,1014.4
2017-11-10T03:44:02.658Z,1014.39
2017-11-10T03:45:12.316Z,1014.45
2017-11-10T03:46:21.953Z,1014.4
2017-11-10T03:47:31.602Z,1014.39
2017-11-10T03:48:40.924Z,1014.38
2017-11-10T03:49:50.561Z,1014.4
2017-11-10T03:50:59.595Z,1014.39
2017-11-10T03:52:08.896Z,1014.35
2017-11-10T03:53:18.845Z,1014.31
2017-11-10T03:54:27.828Z,1014.31
2017-11-10T03:55:36.466Z,1014.27
2017-11-10T03:56:45.459Z,1014.29
2017-11-10T03:57:55.097Z,1014.3
2017-11-10T03:59:05.084Z,1014.3
2017-11-10T04:00:14.063Z,1014.35
2017-11-10T04:01:23.033Z,1014.37
2017-11-10T04:02:32.689Z,1014.38
2017-11-10T04:03:41.992Z,1014.39
2017-11-10T04:04:51.619Z,1014.39
2017-11-10T04:06:00.925Z,1014.35
2017-11-10T04:07:09.905Z,1014.37
2017-11-10T04:08:19.266Z,1014.39
2017-11-10T04:09:28.887Z,1014.39
2017-11-10T04:10:37.543Z,1014.41
2017-11-10T04:11:46.861Z,1014.39
2017-11-10T04:12:56.157Z,1014.38
2017-11-10T04:14:05.775Z,1014.41
2017-11-10T04:15:14.747Z,1014.41
2017-11-10T04:16:23.754Z,1014.31
2017-11-10T04:17:33.068Z,1014.25
2017-11-10T04:18:42.047Z,1014.15
2017-11-10T04:19:51.073Z,1014.13
2017-11-10T04:21:00.389Z,1014.13
2017-11-10T04:22:10.012Z,1014.15
2017-11-10T04:23:18.983Z,1014.03
2017-11-10T04:24:27.956Z,1014.03
2017-11-10T04:25:36.934Z,1013.99
2017-11-10T04:26:46.253Z,1014.02
2017-11-10T04:27:55.576Z,1014.03
2017-11-10T04:29:05.532Z,1014.03
2017-11-10T04:30:14.496Z,1013.96
2017-11-10T04:31:23.793Z,1013.85
2017-11-10T04:32:33.435Z,1013.79
2017-11-10T04:33:43.716Z,1013.8
2017-11-10T04:34:52.363Z,1013.82
2017-11-10T04:36:01.324Z,1013.79
2017-11-10T04:37:10.303Z,1013.8
2017-11-10T04:38:19.946Z,1013.8
2017-11-10T04:39:29.250Z,1013.79
2017-11-10T04:40:38.219Z,1013.75
2017-11-10T04:41:47.180Z,1013.73
2017-11-10T04:42:56.505Z,1013.67
2017-11-10T04:44:05.487Z,1013.67
2017-11-10T04:45:15.452Z,1013.71
2017-11-10T04:46:24.439Z,1013.76
2017-11-10T04:47:33.740Z,1013.72
2017-11-10T04:48:43.072Z,1013.74
2017-11-10T04:49:53.037Z,1013.71
2017-11-10T04:51:02.726Z,1013.73
2017-11-10T04:52:12.040Z,1013.73
2017-11-10T04:53:20.998Z,1013.69
2017-11-10T04:54:30.304Z,1013.74
2017-11-10T04:55:39.273Z,1013.7
2017-11-10T04:56:48.911Z,1013.7
2017-11-10T04:57:58.211Z,1013.64
2017-11-10T04:59:07.517Z,1013.65
2017-11-10T05:00:16.507Z,1013.59
2017-11-10T05:01:26.472Z,1013.6
2017-11-10T05:02:36.102Z,1013.58
2017-11-10T05:03:45.972Z,1013.59
2017-11-10T05:04:55.272Z,1013.56
2017-11-10T05:06:04.918Z,1013.52
2017-11-10T05:07:14.888Z,1013.52
2017-11-10T05:08:23.869Z,1013.52
2017-11-10T05:09:33.175Z,1013.51
2017-11-10T05:10:41.822Z,1013.43
2017-11-10T05:11:51.490Z,1013.46
2017-11-10T05:13:00.459Z,1013.46
2017-11-10T05:14:09.771Z,1013.43
2017-11-10T05:15:19.075Z,1013.43
2017-11-10T05:16:28.719Z,1013.41
2017-11-10T05:17:37.722Z,1013.41
2017-11-10T05:18:46.702Z,1013.35
2017-11-10T05:19:56.220Z,1013.35
2017-11-10T05:21:05.199Z,1013.39
2017-11-10T05:22:14.841Z,1013.35
2017-11-10T05:23:23.806Z,1013.37
2017-11-10T05:24:33.442Z,1013.32
2017-11-10T05:25:43.421Z,1013.28
2017-11-10T05:26:53.064Z,1013.27
2017-11-10T05:28:02.038Z,1013.3
2017-11-10T05:29:11.354Z,1013.28
2017-11-10T05:30:20.001Z,1013.3
2017-11-10T05:31:29.320Z,1013.26
2017-11-10T05:32:39.277Z,1013.16
2017-11-10T05:33:48.586Z,1013.15
2017-11-10T05:34:58.231Z,1013.16
2017-11-10T05:36:08.197Z,1013.16
2017-11-10T05:37:17.821Z,1013.13
2017-11-10T05:38:27.469Z,1013.12
2017-11-10T05:39:36.796Z,1013.08
2017-11-10T05:40:46.434Z,1013.06
2017-11-10T05:41:56.390Z,1013.06
2017-11-10T05:43:05.689Z,1013.02
2017-11-10T05:44:15.350Z,1013
2017-11-10T05:45:24.982Z,1012.99
2017-11-10T05:46:34.314Z,1012.96
2017-11-10T05:47:42.954Z,1012.95
2017-11-10T05:48:51.937Z,1012.87
2017-11-10T05:50:01.257Z,1012.9
2017-11-10T05:51:11.223Z,1012.87
2017-11-10T05:52:20.847Z,1012.8
2017-11-10T05:53:30.157Z,1012.85
2017-11-10T05:54:39.154Z,1012.85
2017-11-10T05:55:48.463Z,1012.87
2017-11-10T05:56:57.761Z,1012.92
2017-11-10T05:58:07.391Z,1012.84
2017-11-10T05:59:17.023Z,1012.83
2017-11-10T06:00:25.993Z,1012.8
2017-11-10T06:01:36.312Z,1012.72
2017-11-10T06:02:46.629Z,1012.66
2017-11-10T06:03:55.960Z,1012.52
2017-11-10T06:05:05.593Z,1012.44
2017-11-10T06:06:14.898Z,1012.51
2017-11-10T06:07:24.217Z,1012.66
2017-11-10T06:08:33.200Z,1012.7
2017-11-10T06:09:42.554Z,1012.77
2017-11-10T06:10:51.517Z,1012.78
2017-11-10T06:12:01.494Z,1012.85
2017-11-10T06:13:10.473Z,1012.85
2017-11-10T06:14:20.111Z,1012.86
2017-11-10T06:15:29.428Z,1012.9
2017-11-10T06:16:38.404Z,1012.94
2017-11-10T06:17:47.052Z,1012.88
2017-11-10T06:18:57.338Z,1012.9
2017-11-10T06:20:07.297Z,1012.94
2017-11-10T06:21:15.942Z,1012.94
2017-11-10T06:22:24.591Z,1012.93
2017-11-10T06:23:34.353Z,1012.93
2017-11-10T06:24:44.418Z,1012.9
2017-11-10T06:25:53.116Z,1012.93
2017-11-10T06:27:02.884Z,1012.9
2017-11-10T06:28:12.197Z,1012.89
2017-11-10T06:29:22.155Z,1012.86
2017-11-10T06:30:31.478Z,1012.84
2017-11-10T06:31:40.831Z,1012.82
2017-11-10T06:32:50.156Z,1012.85
2017-11-10T06:33:59.471Z,1012.79
2017-11-10T06:35:08.506Z,1012.79
2017-11-10T06:36:17.824Z,1012.77
2017-11-10T06:37:27.172Z,1012.72
2017-11-10T06:38:36.831Z,1012.7
2017-11-10T06:39:45.814Z,1012.68
2017-11-10T06:40:54.819Z,1012.7
2017-11-10T06:42:04.149Z,1012.66
2017-11-10T06:43:12.815Z,1012.61
2017-11-10T06:44:21.789Z,1012.61
2017-11-10T06:45:31.455Z,1012.58
2017-11-10T06:46:40.437Z,1012.61
2017-11-10T06:47:49.749Z,1012.58
2017-11-10T06:48:58.729Z,1012.53
2017-11-10T06:50:08.050Z,1012.52
2017-11-10T06:51:17.473Z,1012.49
2017-11-10T06:52:26.252Z,1012.46
2017-11-10T06:53:36.321Z,1012.44
2017-11-10T06:54:45.775Z,1012.47
2017-11-10T06:55:54.826Z,1012.41
2017-11-10T06:57:04.142Z,1012.4
2017-11-10T06:58:13.121Z,1012.35
2017-11-10T06:59:22.417Z,1012.38
2017-11-10T07:00:31.714Z,1012.39
2017-11-10T07:01:41.393Z,1012.4
2017-11-10T07:02:50.042Z,1012.34
2017-11-10T07:03:59.336Z,1012.31
2017-11-10T07:05:08.318Z,1012.27
2017-11-10T07:06:17.645Z,1012.23
2017-11-10T07:07:27.321Z,1012.22
2017-11-10T07:08:36.353Z,1012.26
2017-11-10T07:09:45.005Z,1012.22
2017-11-10T07:10:54.663Z,1012.24
2017-11-10T07:12:03.666Z,1012.19
2017-11-10T07:13:13.693Z,1012.21
2017-11-10T07:14:23.332Z,1012.16
2017-11-10T07:15:32.314Z,1012.16
2017-11-10T07:16:41.947Z,1012.13
2017-11-10T07:17:51.547Z,1012.14
2017-11-10T07:19:00.212Z,1012.09
2017-11-10T07:20:09.537Z,1012.1
2017-11-10T07:21:18.499Z,1012.1
2017-11-10T07:22:28.153Z,1012.08
2017-11-10T07:23:37.803Z,1012.11
2017-11-10T07:24:47.439Z,1012.12
2017-11-10T07:25:57.407Z,1012.05
2017-11-10T07:27:06.442Z,1012.02
2017-11-10T07:28:15.423Z,1012.05
2017-11-10T07:29:24.731Z,1012.04
2017-11-10T07:30:33.756Z,1012.07
2017-11-10T07:31:43.399Z,1012.03
2017-11-10T07:32:52.718Z,1012.05
2017-11-10T07:34:01.388Z,1012.06
2017-11-10T07:35:10.694Z,1012.07
2017-11-10T07:36:20.013Z,1012.08
2017-11-10T07:37:29.689Z,1012.04
2017-11-10T07:38:39.366Z,1012.02
2017-11-10T07:39:48.707Z,1012.06
2017-11-10T07:40:57.703Z,1012.03
2017-11-10T07:42:07.024Z,1012.02
2017-11-10T07:43:16.070Z,1011.99
2017-11-10T07:44:26.057Z,1012.02
2017-11-10T07:45:35.452Z,1011.98
2017-11-10T07:46:44.498Z,1012.01
2017-11-10T07:47:54.222Z,1011.99
2017-11-10T07:49:03.871Z,1012.04
2017-11-10T07:50:12.861Z,1012.02
2017-11-10T07:51:21.871Z,1012.03
2017-11-10T07:52:31.538Z,1012.02
2017-11-10T07:53:40.522Z,1012.01
2017-11-10T07:54:49.508Z,1012.01
2017-11-10T07:55:59.484Z,1012.02
2017-11-10T07:57:08.799Z,1012
2017-11-10T07:58:17.766Z,1012.01
2017-11-10T07:59:26.741Z,1012
2017-11-10T08:00:35.758Z,1011.99
2017-11-10T08:01:44.744Z,1011.99
2017-11-10T08:02:53.748Z,1011.98
2017-11-10T08:04:03.762Z,1011.98
2017-11-10T08:05:13.124Z,1011.96
2017-11-10T08:06:22.764Z,1011.96
2017-11-10T08:07:32.086Z,1011.93
2017-11-10T08:08:41.406Z,1011.92
2017-11-10T08:09:51.390Z,1011.86
2017-11-10T08:11:00.366Z,1011.9
2017-11-10T08:12:10.055Z,1011.88
2017-11-10T08:13:19.305Z,1011.81
2017-11-10T08:14:28.637Z,1011.79
2017-11-10T08:15:38.492Z,1011.78
2017-11-10T08:16:47.485Z,1011.76
2017-11-10T08:17:57.449Z,1011.81
2017-11-10T08:19:07.088Z,1011.78
2017-11-10T08:20:15.764Z,1011.72
2017-11-10T08:21:25.082Z,1011.7
2017-11-10T08:22:34.071Z,1011.64
2017-11-10T08:23:43.051Z,1011.62
2017-11-10T08:24:52.374Z,1011.63
2017-11-10T08:26:01.363Z,1011.61
2017-11-10T08:27:10.703Z,1011.63
2017-11-10T08:28:20.371Z,1011.62
2017-11-10T08:29:29.680Z,1011.6
2017-11-10T08:30:38.980Z,1011.62
2017-11-10T08:31:48.957Z,1011.58
2017-11-10T08:32:58.012Z,1011.57
2017-11-10T08:34:06.979Z,1011.51
2017-11-10T08:35:15.968Z,1011.49
2017-11-10T08:36:24.975Z,1011.52
2017-11-10T08:37:34.937Z,1011.47
2017-11-10T08:38:44.935Z,1011.46
2017-11-10T08:39:53.910Z,1011.44
2017-11-10T08:41:03.562Z,1011.46
2017-11-10T08:42:12.210Z,1011.42
2017-11-10T08:43:22.187Z,1011.38
2017-11-10T08:44:31.879Z,1011.3
2017-11-10T08:45:41.201Z,1011.27
2017-11-10T08:46:50.555Z,1011.23
2017-11-10T08:47:59.534Z,1011.21
2017-11-10T08:49:09.845Z,1011.23
2017-11-10T08:50:19.840Z,1011.2
2017-11-10T08:51:29.186Z,1011.19
2017-11-10T08:52:38.512Z,1011.17
2017-11-10T08:53:48.155Z,1011.17
2017-11-10T08:54:57.800Z,1011.18
2017-11-10T08:56:07.113Z,1011.16
2017-11-10T08:57:16.768Z,1011.16
2017-11-10T08:58:26.420Z,1011.17
2017-11-10T08:59:35.423Z,1011.12
2017-11-10T09:00:45.073Z,1011.11
2017-11-10T09:01:54.421Z,1011.04
2017-11-10T09:03:03.743Z,1011.08
2017-11-10T09:04:13.059Z,1011.08
2017-11-10T09:05:22.734Z,1011.07
2017-11-10T09:06:32.725Z,1011.08
2017-11-10T09:07:41.745Z,1011.02
2017-11-10T09:08:51.392Z,1010.96
2017-11-10T09:10:01.057Z,1010.94
2017-11-10T09:11:10.706Z,1010.91
2017-11-10T09:12:20.348Z,1010.95
2017-11-10T09:13:30.008Z,1010.91
2017-11-10T09:14:39.336Z,1010.91
2017-11-10T09:15:48.687Z,1010.94
2017-11-10T09:16:58.691Z,1010.92
2017-11-10T09:18:08.324Z,1010.87
2017-11-10T09:19:18.324Z,1010.81
2017-11-10T09:20:28.016Z,1010.8
2017-11-10T09:21:37.054Z,1010.81
2017-11-10T09:22:46.415Z,1010.82
2017-11-10T09:23:55.393Z,1010.87
2017-11-10T09:25:05.066Z,1010.82
2017-11-10T09:26:14.388Z,1010.8
2017-11-10T09:27:24.349Z,1010.84
2017-11-10T09:28:34.359Z,1010.8
2017-11-10T09:29:43.696Z,1010.79
2017-11-10T09:30:53.020Z,1010.83
2017-11-10T09:32:02.334Z,1010.91
2017-11-10T09:33:11.360Z,1010.82
2017-11-10T09:34:21.017Z,1010.94
2017-11-10T09:35:31.334Z,1010.86
2017-11-10T09:36:40.668Z,1010.84
2017-11-10T09:37:50.670Z,1010.83
2017-11-10T09:39:00.707Z,1010.87
2017-11-10T09:40:10.345Z,1010.81
2017-11-10T09:41:19.334Z,1010.76
2017-11-10T09:42:29.304Z,1010.78
2017-11-10T09:43:38.984Z,1010.7
2017-11-10T09:44:47.954Z,1010.78
2017-11-10T09:45:57.320Z,1010.73
2017-11-10T09:47:07.291Z,1010.68
2017-11-10T09:48:16.929Z,1010.75
2017-11-10T09:49:26.577Z,1010.74
2017-11-10T09:50:35.933Z,1010.74
2017-11-10T09:51:45.236Z,1010.75
2017-11-10T09:52:54.879Z,1010.73
2017-11-10T09:54:04.540Z,1010.68
2017-11-10T09:55:13.525Z,1010.64
2017-11-10T09:56:22.864Z,1010.59
2017-11-10T09:57:32.540Z,1010.56
2017-11-10T09:58:42.508Z,1010.6
2017-11-10T09:59:51.844Z,1010.53
2017-11-10T10:01:00.573Z,1010.45
2017-11-10T10:02:09.881Z,1010.51
2017-11-10T10:03:18.891Z,1010.42
2017-11-10T10:04:28.894Z,1010.42
2017-11-10T10:05:37.901Z,1010.41
2017-11-10T10:06:47.221Z,1010.29
2017-11-10T10:07:57.205Z,1010.3
2017-11-10T10:09:06.528Z,1010.28
2017-11-10T10:10:16.178Z,1010.3
2017-11-10T10:11:25.554Z,1010.33
2017-11-10T10:12:35.225Z,1010.29
2017-11-10T10:13:44.550Z,1010.31
2017-11-10T10:14:54.569Z,1010.35
2017-11-10T10:16:03.566Z,1010.36
2017-11-10T10:17:12.897Z,1010.38
2017-11-10T10:18:22.551Z,1010.35
2017-11-10T10:19:31.884Z,1010.36
2017-11-10T10:20:41.548Z,1010.35
2017-11-10T10:21:50.905Z,1010.38
2017-11-10T10:23:00.903Z,1010.31
2017-11-10T10:24:10.572Z,1010.4
2017-11-10T10:25:20.227Z,1010.41
2017-11-10T10:26:30.202Z,1010.37
2017-11-10T10:27:39.623Z,1010.39
2017-11-10T10:28:48.940Z,1010.35
2017-11-10T10:29:58.589Z,1010.35
2017-11-10T10:31:08.230Z,1010.37
2017-11-10T10:32:17.545Z,1010.37
2017-11-10T10:33:26.547Z,1010.31
2017-11-10T10:34:35.534Z,1010.36
2017-11-10T10:35:45.161Z,1010.28
2017-11-10T10:36:54.816Z,1010.31
2017-11-10T10:38:04.473Z,1010.29
2017-11-10T10:39:14.126Z,1010.3
2017-11-10T10:40:22.779Z,1010.28
2017-11-10T10:41:32.425Z,1010.26
2017-11-10T10:42:42.074Z,1010.19
2017-11-10T10:43:51.395Z,1010.27
2017-11-10T10:45:01.395Z,1010.25
2017-11-10T10:46:10.396Z,1010.14
2017-11-10T10:47:20.032Z,1010.15
2017-11-10T10:48:29.680Z,1010.16
2017-11-10T10:49:39.341Z,1010.14
2017-11-10T10:50:48.663Z,1010.09
2017-11-10T10:51:57.659Z,1010.04
2017-11-10T10:53:07.293Z,1010.02
2017-11-10T10:54:17.284Z,1010
2017-11-10T10:55:27.267Z,1009.93
2017-11-10T10:56:36.911Z,1009.9
2017-11-10T10:57:45.558Z,1009.87
2017-11-10T10:58:54.892Z,1009.85
2017-11-10T11:00:05.566Z,1009.81
2017-11-10T11:01:14.586Z,1009.84
2017-11-10T11:02:24.241Z,1009.75
2017-11-10T11:03:33.888Z,1009.75
2017-11-10T11:04:43.526Z,1009.65
2017-11-10T11:05:53.173Z,1009.72
2017-11-10T11:07:03.197Z,1009.62
2017-11-10T11:08:12.206Z,1009.59
2017-11-10T11:09:20.874Z,1009.64
2017-11-10T11:10:30.186Z,1009.6
2017-11-10T11:11:39.508Z,1009.6
2017-11-10T11:12:48.486Z,1009.57
2017-11-10T11:13:57.801Z,1009.52
2017-11-10T11:15:07.128Z,1009.46
2017-11-10T11:16:16.776Z,1009.41
2017-11-10T11:17:27.087Z,1009.45
2017-11-10T11:18:36.061Z,1009.4
2017-11-10T11:19:45.041Z,1009.37
2017-11-10T11:20:54.687Z,1009.39
2017-11-10T11:22:03.997Z,1009.38
2017-11-10T11:23:13.329Z,1009.3
2017-11-10T11:24:22.651Z,1009.28
2017-11-10T11:25:32.346Z,1009.24
2017-11-10T11:26:41.676Z,1009.26
2017-11-10T11:27:51.684Z,1009.22
2017-11-10T11:29:01.004Z,1009.23
2017-11-10T11:30:10.000Z,1009.21
2017-11-10T11:31:19.317Z,1009.17
2017-11-10T11:32:28.968Z,1009.09
2017-11-10T11:33:38.961Z,1009.14
2017-11-10T11:34:48.284Z,1009.1
2017-11-10T11:35:57.596Z,1009.07
2017-11-10T11:37:07.590Z,1009.15
2017-11-10T11:38:16.567Z,1009.12
2017-11-10T11:39:25.887Z,1009.12
2017-11-10T11:40:34.869Z,1009.04
2017-11-10T11:41:44.179Z,1009.06
2017-11-10T11:42:53.855Z,1009.08
2017-11-10T11:44:03.829Z,1009.03
2017-11-10T11:45:13.153Z,1009.06
2017-11-10T11:46:22.833Z,1009.07
2017-11-10T11:47:31.811Z,1009
2017-11-10T11:48:41.786Z,1009.04
2017-11-10T11:49:50.771Z,1009.05
2017-11-10T11:51:00.402Z,1009.06
2017-11-10T11:52:10.376Z,1009.03
2017-11-10T11:53:20.387Z,1009.02
2017-11-10T11:54:30.360Z,1009.02
2017-11-10T11:55:40.033Z,1008.99
2017-11-10T11:56:49.699Z,1008.98
2017-11-10T11:57:58.696Z,1008.96
2017-11-10T11:59:09.031Z,1008.92
2017-11-10T12:00:18.353Z,1008.87
2017-11-10T12:01:28.338Z,1008.87
2017-11-10T12:02:38.309Z,1008.88
2017-11-10T12:03:47.971Z,1008.84
2017-11-10T12:04:57.290Z,1008.82
2017-11-10T12:06:06.599Z,1008.75
2017-11-10T12:07:15.964Z,1008.77
2017-11-10T12:08:25.271Z,1008.8
2017-11-10T12:09:34.574Z,1008.8
2017-11-10T12:10:43.908Z,1008.81
2017-11-10T12:11:52.567Z,1008.8
2017-11-10T12:13:01.560Z,1008.82
2017-11-10T12:14:10.953Z,1008.81
2017-11-10T12:15:20.276Z,1008.82
2017-11-10T12:16:29.958Z,1008.8
2017-11-10T12:17:39.299Z,1008.83
2017-11-10T12:18:48.982Z,1008.86
2017-11-10T12:19:58.315Z,1008.8
2017-11-10T12:21:07.649Z,1008.77
2017-11-10T12:22:17.307Z,1008.83
2017-11-10T12:23:26.610Z,1008.86
2017-11-10T12:24:35.589Z,1008.82
2017-11-10T12:25:45.260Z,1008.78
2017-11-10T12:26:54.583Z,1008.85
2017-11-10T12:28:03.906Z,1008.95
2017-11-10T12:29:13.231Z,1008.89
2017-11-10T12:30:22.567Z,1008.86
2017-11-10T12:31:32.553Z,1008.87
2017-11-10T12:32:42.557Z,1008.91
2017-11-10T12:33:52.251Z,1008.83
2017-11-10T12:35:02.227Z,1008.89
2017-11-10T12:36:11.554Z,1008.93
2017-11-10T12:37:21.203Z,1008.91
2017-11-10T12:38:30.859Z,1008.92
2017-11-10T12:39:40.182Z,1008.89
2017-11-10T12:40:49.172Z,1008.86
2017-11-10T12:41:59.162Z,1008.88
2017-11-10T12:43:08.476Z,1008.88
2017-11-10T12:44:17.805Z,1008.87
2017-11-10T12:45:26.790Z,1008.84
2017-11-10T12:46:35.784Z,1008.84
2017-11-10T12:47:45.771Z,1008.81
2017-11-10T12:48:55.098Z,1008.76
2017-11-10T12:50:04.421Z,1008.73
2017-11-10T12:51:14.073Z,1008.71
2017-11-10T12:52:23.722Z,1008.73
2017-11-10T12:53:33.066Z,1008.72
2017-11-10T12:54:42.407Z,1008.74
2017-11-10T12:55:51.723Z,1008.72
2017-11-10T12:57:01.035Z,1008.72
2017-11-10T12:58:10.352Z,1008.73
2017-11-10T12:59:20.365Z,1008.74
2017-11-10T13:00:29.305Z,1008.68
2017-11-10T13:01:37.955Z,1008.75
2017-11-10T13:02:47.615Z,1008.68
2017-11-10T13:03:57.610Z,1008.66
2017-11-10T13:05:06.935Z,1008.67
2017-11-10T13:06:16.609Z,1008.57
2017-11-10T13:07:25.593Z,1008.74
2017-11-10T13:08:34.577Z,1008.65
2017-11-10T13:09:43.566Z,1008.65
2017-11-10T13:10:52.543Z,1008.65
2017-11-10T13:12:01.523Z,1008.58
2017-11-10T13:13:11.496Z,1008.56
2017-11-10T13:14:20.831Z,1008.6
2017-11-10T13:15:30.814Z,1008.6
2017-11-10T13:16:40.794Z,1008.59
2017-11-10T13:17:50.453Z,1008.53
2017-11-10T13:19:00.458Z,1008.54
2017-11-10T13:20:09.444Z,1008.54
2017-11-10T13:21:18.453Z,1008.63
2017-11-10T13:22:27.767Z,1008.56
2017-11-10T13:23:37.092Z,1008.54
2017-11-10T13:24:46.752Z,1008.5
2017-11-10T13:25:56.400Z,1008.53
2017-11-10T13:27:06.752Z,1008.43
2017-11-10T13:28:16.079Z,1008.46
2017-11-10T13:29:25.099Z,1008.47
2017-11-10T13:30:34.089Z,1008.47
2017-11-10T13:31:44.075Z,1008.5
2017-11-10T13:32:53.208Z,1008.48
2017-11-10T13:34:02.892Z,1008.48
2017-11-10T13:35:12.892Z,1008.52
2017-11-10T13:36:22.217Z,1008.51
2017-11-10T13:37:31.221Z,1008.53
2017-11-10T13:38:40.536Z,1008.58
2017-11-10T13:39:50.205Z,1008.59
2017-11-10T13:41:00.522Z,1008.52
2017-11-10T13:42:09.826Z,1008.47
2017-11-10T13:43:18.830Z,1008.63
2017-11-10T13:44:28.819Z,1008.68
2017-11-10T13:45:38.118Z,1008.59
2017-11-10T13:46:47.434Z,1008.6
2017-11-10T13:47:57.092Z,1008.62
2017-11-10T13:49:06.066Z,1008.6
2017-11-10T13:50:15.718Z,1008.56
2017-11-10T13:51:25.046Z,1008.53
2017-11-10T13:52:35.017Z,1008.55
2017-11-10T13:53:43.992Z,1008.59
2017-11-10T13:54:53.023Z,1008.67
2017-11-10T13:56:02.693Z,1008.61
2017-11-10T13:57:11.691Z,1008.57
2017-11-10T13:58:21.673Z,1008.49
2017-11-10T13:59:30.667Z,1008.48
2017-11-10T14:00:39.979Z,1008.47
2017-11-10T14:01:49.651Z,1008.55
2017-11-10T14:02:58.687Z,1008.5